sensor_id;sensor_type;location;lat;lon;timestamp;P1;durP1;ratioP1;P2;durP2;ratioP2
7823;SDS011;3957;48.61947800;9.05303100;2024-03-08T00:00:46;21.88;;;12.75;;
7823;SDS011;3957;48.61947800;9.05303100;2024-03-08T00:01:48;25.25;;;13.00;;
7823;SDS011;3957;48.61947800;9.05303100;2024-03-08T00:02:50;23.00;;;12.98;;
7823;SDS011;3957;48.61947800;9.05303100;2024-03-08T00:03:52;21.23;;;12.57;;
7823;SDS011;3957;48.61947800;9.05303100;2024-03-08T00:04:54;24.15;;;13.00;;
7823;SDS011;3957;48.61947800;9.05303100;2024-03-08T00:05:55;24.92;;;13.02;;
7823;SDS011;3957;48.61947800;9.05303100;2024-03-08T00:06:57;21.02;;;12.35;;
7823;SDS011;3957;48.61947800;9.05303100;2024-03-08T00:07:59;22.60;;;12.75;;
7823;SDS011;3957;48.61947800;9.05303100;2024-03-08T00:09:01;21.70;;;12.20;;
7823;SDS011;3957;48.61947800;9.05303100;2024-03-08T00:10:03;19.02;;;11.43;;
7823;SDS011;3957;48.61947800;9.05303100;2024-03-08T00:11:06;21.23;;;12.30;;
7823;SDS011;3957;48.61947800;9.05303100;2024-03-08T00:12:07;22.48;;;13.18;;
7823;SDS011;3957;48.61947800;9.05303100;2024-03-08T00:13:10;20.92;;;12.35;;
7823;SDS011;3957;48.61947800;9.05303100;2024-03-08T00:14:11;22.65;;;12.75;;
7823;SDS011;3957;48.61947800;9.05303100;2024-03-08T00:15:14;21.27;;;12.68;;
7823;SDS011;3957;48.61947800;9.05303100;2024-03-08T00:16:18;22.67;;;12.75;;
7823;SDS011;3957;48.61947800;9.05303100;2024-03-08T00:17:24;23.67;;;12.88;;
7823;SDS011;3957;48.61947800;9.05303100;2024-03-08T00:18:26;23.70;;;13.32;;
7823;SDS011;3957;48.61947800;9.05303100;2024-03-08T00:19:28;19.95;;;12.15;;
7823;SDS011;3957;48.61947800;9.05303100;2024-03-08T00:20:29;22.27;;;12.82;;
7823;SDS011;3957;48.61947800;9.05303100;2024-03-08T00:21:31;20.35;;;11.95;;
7823;SDS011;3957;48.61947800;9.05303100;2024-03-08T00:22:32;19.98;;;11.82;;
7823;SDS011;3957;48.61947800;9.05303100;2024-03-08T00:23:34;22.20;;;11.90;;
7823;SDS011;3957;48.61947800;9.05303100;2024-03-08T00:24:36;23.40;;;12.55;;
7823;SDS011;3957;48.61947800;9.05303100;2024-03-08T00:25:38;22.63;;;11.07;;
7823;SDS011;3957;48.61947800;9.05303100;2024-03-08T00:26:40;19.05;;;11.38;;
7823;SDS011;3957;48.61947800;9.05303100;2024-03-08T00:27:43;25.02;;;12.05;;
7823;SDS011;3957;48.61947800;9.05303100;2024-03-08T00:28:44;22.02;;;11.57;;
7823;SDS011;3957;48.61947800;9.05303100;2024-03-08T00:29:46;18.90;;;11.47;;
7823;SDS011;3957;48.61947800;9.05303100;2024-03-08T00:30:48;19.33;;;11.63;;
7823;SDS011;3957;48.61947800;9.05303100;2024-03-08T00:31:50;21.90;;;12.30;;
7823;SDS011;3957;48.61947800;9.05303100;2024-03-08T00:32:52;21.83;;;12.77;;
7823;SDS011;3957;48.61947800;9.05303100;2024-03-08T00:33:53;24.42;;;12.57;;
7823;SDS011;3957;48.61947800;9.05303100;2024-03-08T00:34:55;25.90;;;12.93;;
7823;SDS011;3957;48.61947800;9.05303100;2024-03-08T00:35:57;24.05;;;13.15;;
7823;SDS011;3957;48.61947800;9.05303100;2024-03-08T00:36:59;21.98;;;12.60;;
7823;SDS011;3957;48.61947800;9.05303100;2024-03-08T00:38:00;18.42;;;11.32;;
7823;SDS011;3957;48.61947800;9.05303100;2024-03-08T00:39:02;21.83;;;12.65;;
7823;SDS011;3957;48.61947800;9.05303100;2024-03-08T00:40:07;21.60;;;12.40;;
7823;SDS011;3957;48.61947800;9.05303100;2024-03-08T00:41:10;22.98;;;12.68;;
7823;SDS011;3957;48.61947800;9.05303100;2024-03-08T00:42:12;19.92;;;11.68;;
7823;SDS011;3957;48.61947800;9.05303100;2024-03-08T00:43:14;21.20;;;12.15;;
7823;SDS011;3957;48.61947800;9.05303100;2024-03-08T00:44:17;21.90;;;12.43;;
7823;SDS011;3957;48.61947800;9.05303100;2024-03-08T00:45:18;20.08;;;12.15;;
7823;SDS011;3957;48.61947800;9.05303100;2024-03-08T00:46:20;21.73;;;12.73;;
7823;SDS011;3957;48.61947800;9.05303100;2024-03-08T00:47:21;23.52;;;12.40;;
7823;SDS011;3957;48.61947800;9.05303100;2024-03-08T00:48:23;25.52;;;13.15;;
7823;SDS011;3957;48.61947800;9.05303100;2024-03-08T00:49:25;20.95;;;11.60;;
7823;SDS011;3957;48.61947800;9.05303100;2024-03-08T00:50:27;19.50;;;11.60;;
7823;SDS011;3957;48.61947800;9.05303100;2024-03-08T00:51:28;20.17;;;11.85;;
7823;SDS011;3957;48.61947800;9.05303100;2024-03-08T00:52:30;21.45;;;12.20;;
7823;SDS011;3957;48.61947800;9.05303100;2024-03-08T00:53:32;20.98;;;12.23;;
7823;SDS011;3957;48.61947800;9.05303100;2024-03-08T00:54:34;25.10;;;12.55;;
7823;SDS011;3957;48.61947800;9.05303100;2024-03-08T00:55:37;23.33;;;11.75;;
7823;SDS011;3957;48.61947800;9.05303100;2024-03-08T00:56:39;21.00;;;12.50;;
7823;SDS011;3957;48.61947800;9.05303100;2024-03-08T00:57:40;20.63;;;11.50;;
7823;SDS011;3957;48.61947800;9.05303100;2024-03-08T00:58:42;20.98;;;12.07;;
7823;SDS011;3957;48.61947800;9.05303100;2024-03-08T00:59:44;23.83;;;12.25;;
7823;SDS011;3957;48.61947800;9.05303100;2024-03-08T01:00:45;21.40;;;11.93;;
7823;SDS011;3957;48.61947800;9.05303100;2024-03-08T01:01:47;18.75;;;11.50;;
7823;SDS011;3957;48.61947800;9.05303100;2024-03-08T01:02:49;21.77;;;12.20;;
7823;SDS011;3957;48.61947800;9.05303100;2024-03-08T01:03:50;22.00;;;11.52;;
7823;SDS011;3957;48.61947800;9.05303100;2024-03-08T01:04:52;19.10;;;11.45;;
7823;SDS011;3957;48.61947800;9.05303100;2024-03-08T01:05:54;21.70;;;12.38;;
7823;SDS011;3957;48.61947800;9.05303100;2024-03-08T01:06:56;20.85;;;12.25;;
7823;SDS011;3957;48.61947800;9.05303100;2024-03-08T01:07:58;25.10;;;13.03;;
7823;SDS011;3957;48.61947800;9.05303100;2024-03-08T01:09:00;22.02;;;12.35;;
7823;SDS011;3957;48.61947800;9.05303100;2024-03-08T01:10:04;23.17;;;12.95;;
7823;SDS011;3957;48.61947800;9.05303100;2024-03-08T01:11:12;24.65;;;13.48;;
7823;SDS011;3957;48.61947800;9.05303100;2024-03-08T01:12:15;23.60;;;12.88;;
7823;SDS011;3957;48.61947800;9.05303100;2024-03-08T01:13:17;24.20;;;13.48;;
7823;SDS011;3957;48.61947800;9.05303100;2024-03-08T01:14:20;22.23;;;12.23;;
7823;SDS011;3957;48.61947800;9.05303100;2024-03-08T01:15:30;23.63;;;13.85;;
7823;SDS011;3957;48.61947800;9.05303100;2024-03-08T01:16:31;24.02;;;12.52;;
7823;SDS011;3957;48.61947800;9.05303100;2024-03-08T01:17:34;21.13;;;12.82;;
7823;SDS011;3957;48.61947800;9.05303100;2024-03-08T01:18:36;23.52;;;12.80;;
7823;SDS011;3957;48.61947800;9.05303100;2024-03-08T01:19:38;23.77;;;12.80;;
7823;SDS011;3957;48.61947800;9.05303100;2024-03-08T01:20:39;23.42;;;13.30;;
7823;SDS011;3957;48.61947800;9.05303100;2024-03-08T01:21:42;22.35;;;12.88;;
7823;SDS011;3957;48.61947800;9.05303100;2024-03-08T01:22:44;22.70;;;12.38;;
7823;SDS011;3957;48.61947800;9.05303100;2024-03-08T01:23:45;20.75;;;12.52;;
7823;SDS011;3957;48.61947800;9.05303100;2024-03-08T01:24:47;16.45;;;10.63;;
7823;SDS011;3957;48.61947800;9.05303100;2024-03-08T01:25:49;21.90;;;11.52;;
7823;SDS011;3957;48.61947800;9.05303100;2024-03-08T01:26:57;22.25;;;13.13;;
7823;SDS011;3957;48.61947800;9.05303100;2024-03-08T01:27:59;22.90;;;12.52;;
7823;SDS011;3957;48.61947800;9.05303100;2024-03-08T01:29:01;25.27;;;12.70;;
7823;SDS011;3957;48.61947800;9.05303100;2024-03-08T01:30:06;22.02;;;11.68;;
7823;SDS011;3957;48.61947800;9.05303100;2024-03-08T01:31:08;23.45;;;12.27;;
7823;SDS011;3957;48.61947800;9.05303100;2024-03-08T01:32:09;26.25;;;12.30;;
7823;SDS011;3957;48.61947800;9.05303100;2024-03-08T01:33:11;21.77;;;12.25;;
7823;SDS011;3957;48.61947800;9.05303100;2024-03-08T01:34:13;21.67;;;13.18;;
7823;SDS011;3957;48.61947800;9.05303100;2024-03-08T01:35:14;21.75;;;12.32;;
7823;SDS011;3957;48.61947800;9.05303100;2024-03-08T01:36:15;23.13;;;12.80;;
7823;SDS011;3957;48.61947800;9.05303100;2024-03-08T01:37:17;23.70;;;12.55;;
7823;SDS011;3957;48.61947800;9.05303100;2024-03-08T01:38:19;22.52;;;12.38;;
7823;SDS011;3957;48.61947800;9.05303100;2024-03-08T01:39:24;22.42;;;12.98;;
7823;SDS011;3957;48.61947800;9.05303100;2024-03-08T01:40:25;24.85;;;13.20;;
7823;SDS011;3957;48.61947800;9.05303100;2024-03-08T01:41:27;22.73;;;11.77;;
7823;SDS011;3957;48.61947800;9.05303100;2024-03-08T01:42:31;21.73;;;12.30;;
7823;SDS011;3957;48.61947800;9.05303100;2024-03-08T01:43:32;23.45;;;12.30;;
7823;SDS011;3957;48.61947800;9.05303100;2024-03-08T01:44:34;20.98;;;12.18;;
7823;SDS011;3957;48.61947800;9.05303100;2024-03-08T01:45:35;22.52;;;13.15;;
7823;SDS011;3957;48.61947800;9.05303100;2024-03-08T01:46:37;19.92;;;11.93;;
7823;SDS011;3957;48.61947800;9.05303100;2024-03-08T01:47:38;21.58;;;12.43;;
7823;SDS011;3957;48.61947800;9.05303100;2024-03-08T01:48:41;23.65;;;13.18;;
7823;SDS011;3957;48.61947800;9.05303100;2024-03-08T01:49:43;20.45;;;12.15;;
7823;SDS011;3957;48.61947800;9.05303100;2024-03-08T01:50:45;21.08;;;11.52;;
7823;SDS011;3957;48.61947800;9.05303100;2024-03-08T01:51:48;23.10;;;12.50;;
7823;SDS011;3957;48.61947800;9.05303100;2024-03-08T01:52:50;22.38;;;11.90;;
7823;SDS011;3957;48.61947800;9.05303100;2024-03-08T01:53:51;23.58;;;12.90;;
7823;SDS011;3957;48.61947800;9.05303100;2024-03-08T01:54:53;23.83;;;13.20;;
7823;SDS011;3957;48.61947800;9.05303100;2024-03-08T01:55:58;20.58;;;11.75;;
7823;SDS011;3957;48.61947800;9.05303100;2024-03-08T01:57:00;22.73;;;12.98;;
7823;SDS011;3957;48.61947800;9.05303100;2024-03-08T01:58:03;24.95;;;12.90;;
7823;SDS011;3957;48.61947800;9.05303100;2024-03-08T01:59:06;22.17;;;12.48;;
7823;SDS011;3957;48.61947800;9.05303100;2024-03-08T02:00:09;23.25;;;12.43;;
7823;SDS011;3957;48.61947800;9.05303100;2024-03-08T02:01:12;21.33;;;11.55;;
7823;SDS011;3957;48.61947800;9.05303100;2024-03-08T02:02:16;22.33;;;13.15;;
7823;SDS011;3957;48.61947800;9.05303100;2024-03-08T02:03:19;23.33;;;13.10;;
7823;SDS011;3957;48.61947800;9.05303100;2024-03-08T02:04:21;23.88;;;12.77;;
7823;SDS011;3957;48.61947800;9.05303100;2024-03-08T02:05:23;23.83;;;12.95;;
7823;SDS011;3957;48.61947800;9.05303100;2024-03-08T02:06:24;23.40;;;12.45;;
7823;SDS011;3957;48.61947800;9.05303100;2024-03-08T02:07:26;25.05;;;12.68;;
7823;SDS011;3957;48.61947800;9.05303100;2024-03-08T02:08:28;19.95;;;11.70;;
7823;SDS011;3957;48.61947800;9.05303100;2024-03-08T02:09:30;18.83;;;10.85;;
7823;SDS011;3957;48.61947800;9.05303100;2024-03-08T02:10:32;21.20;;;10.88;;
7823;SDS011;3957;48.61947800;9.05303100;2024-03-08T02:11:34;24.60;;;12.45;;
7823;SDS011;3957;48.61947800;9.05303100;2024-03-08T02:12:38;20.77;;;11.00;;
7823;SDS011;3957;48.61947800;9.05303100;2024-03-08T02:13:40;18.77;;;10.63;;
7823;SDS011;3957;48.61947800;9.05303100;2024-03-08T02:14:41;20.83;;;11.20;;
7823;SDS011;3957;48.61947800;9.05303100;2024-03-08T02:16:02;18.85;;;10.90;;
7823;SDS011;3957;48.61947800;9.05303100;2024-03-08T02:17:05;23.95;;;11.65;;
7823;SDS011;3957;48.61947800;9.05303100;2024-03-08T02:18:07;18.40;;;10.80;;
7823;SDS011;3957;48.61947800;9.05303100;2024-03-08T02:19:09;19.02;;;11.43;;
7823;SDS011;3957;48.61947800;9.05303100;2024-03-08T02:20:11;22.73;;;11.23;;
7823;SDS011;3957;48.61947800;9.05303100;2024-03-08T02:21:15;21.48;;;11.95;;
7823;SDS011;3957;48.61947800;9.05303100;2024-03-08T02:22:19;20.30;;;11.63;;
7823;SDS011;3957;48.61947800;9.05303100;2024-03-08T02:23:21;19.48;;;11.15;;
7823;SDS011;3957;48.61947800;9.05303100;2024-03-08T02:24:23;23.23;;;11.65;;
7823;SDS011;3957;48.61947800;9.05303100;2024-03-08T02:25:25;22.75;;;11.73;;
7823;SDS011;3957;48.61947800;9.05303100;2024-03-08T02:26:27;22.70;;;12.50;;
7823;SDS011;3957;48.61947800;9.05303100;2024-03-08T02:27:28;24.40;;;13.00;;
7823;SDS011;3957;48.61947800;9.05303100;2024-03-08T02:28:31;19.40;;;11.52;;
7823;SDS011;3957;48.61947800;9.05303100;2024-03-08T02:29:32;22.02;;;10.70;;
7823;SDS011;3957;48.61947800;9.05303100;2024-03-08T02:30:35;17.77;;;10.73;;
7823;SDS011;3957;48.61947800;9.05303100;2024-03-08T02:31:37;24.95;;;12.05;;
7823;SDS011;3957;48.61947800;9.05303100;2024-03-08T02:32:40;20.85;;;11.48;;
7823;SDS011;3957;48.61947800;9.05303100;2024-03-08T02:33:42;16.52;;;9.98;;
7823;SDS011;3957;48.61947800;9.05303100;2024-03-08T02:34:44;18.00;;;10.60;;
7823;SDS011;3957;48.61947800;9.05303100;2024-03-08T02:35:45;20.77;;;11.88;;
7823;SDS011;3957;48.61947800;9.05303100;2024-03-08T02:36:48;22.25;;;12.25;;
7823;SDS011;3957;48.61947800;9.05303100;2024-03-08T02:37:49;21.80;;;12.30;;
7823;SDS011;3957;48.61947800;9.05303100;2024-03-08T02:38:51;24.25;;;12.45;;
7823;SDS011;3957;48.61947800;9.05303100;2024-03-08T02:39:52;24.33;;;12.65;;
7823;SDS011;3957;48.61947800;9.05303100;2024-03-08T02:40:54;21.42;;;12.38;;
7823;SDS011;3957;48.61947800;9.05303100;2024-03-08T02:41:56;22.92;;;12.27;;
7823;SDS011;3957;48.61947800;9.05303100;2024-03-08T02:42:57;22.85;;;11.98;;
7823;SDS011;3957;48.61947800;9.05303100;2024-03-08T02:43:59;20.33;;;11.02;;
7823;SDS011;3957;48.61947800;9.05303100;2024-03-08T02:45:01;18.35;;;11.18;;
7823;SDS011;3957;48.61947800;9.05303100;2024-03-08T02:46:02;23.40;;;12.55;;
7823;SDS011;3957;48.61947800;9.05303100;2024-03-08T02:47:06;21.63;;;11.60;;
7823;SDS011;3957;48.61947800;9.05303100;2024-03-08T02:48:08;20.83;;;11.93;;
7823;SDS011;3957;48.61947800;9.05303100;2024-03-08T02:49:09;21.98;;;12.25;;
7823;SDS011;3957;48.61947800;9.05303100;2024-03-08T02:50:11;23.52;;;12.63;;
7823;SDS011;3957;48.61947800;9.05303100;2024-03-08T02:51:15;23.42;;;11.38;;
7823;SDS011;3957;48.61947800;9.05303100;2024-03-08T02:52:17;20.95;;;11.88;;
7823;SDS011;3957;48.61947800;9.05303100;2024-03-08T02:53:19;23.20;;;11.37;;
7823;SDS011;3957;48.61947800;9.05303100;2024-03-08T02:54:20;21.85;;;12.45;;
7823;SDS011;3957;48.61947800;9.05303100;2024-03-08T02:55:22;24.38;;;12.25;;
7823;SDS011;3957;48.61947800;9.05303100;2024-03-08T02:56:23;24.50;;;12.02;;
7823;SDS011;3957;48.61947800;9.05303100;2024-03-08T02:57:25;21.08;;;11.88;;
7823;SDS011;3957;48.61947800;9.05303100;2024-03-08T02:58:26;20.70;;;12.23;;
7823;SDS011;3957;48.61947800;9.05303100;2024-03-08T02:59:28;27.58;;;15.18;;
7823;SDS011;3957;48.61947800;9.05303100;2024-03-08T03:00:30;23.80;;;13.38;;
7823;SDS011;3957;48.61947800;9.05303100;2024-03-08T03:01:32;22.35;;;12.05;;
7823;SDS011;3957;48.61947800;9.05303100;2024-03-08T03:02:34;24.27;;;13.47;;
7823;SDS011;3957;48.61947800;9.05303100;2024-03-08T03:03:36;23.63;;;13.18;;
7823;SDS011;3957;48.61947800;9.05303100;2024-03-08T03:04:41;21.23;;;12.18;;
7823;SDS011;3957;48.61947800;9.05303100;2024-03-08T03:05:42;25.00;;;13.20;;
7823;SDS011;3957;48.61947800;9.05303100;2024-03-08T03:06:49;21.50;;;11.88;;
7823;SDS011;3957;48.61947800;9.05303100;2024-03-08T03:07:51;20.30;;;12.00;;
7823;SDS011;3957;48.61947800;9.05303100;2024-03-08T03:08:53;19.65;;;11.27;;
7823;SDS011;3957;48.61947800;9.05303100;2024-03-08T03:09:55;23.20;;;11.63;;
7823;SDS011;3957;48.61947800;9.05303100;2024-03-08T03:10:56;21.77;;;12.50;;
7823;SDS011;3957;48.61947800;9.05303100;2024-03-08T03:11:58;22.33;;;11.27;;
7823;SDS011;3957;48.61947800;9.05303100;2024-03-08T03:13:00;19.15;;;10.80;;
7823;SDS011;3957;48.61947800;9.05303100;2024-03-08T03:14:01;22.38;;;11.70;;
7823;SDS011;3957;48.61947800;9.05303100;2024-03-08T03:15:03;19.52;;;11.07;;
7823;SDS011;3957;48.61947800;9.05303100;2024-03-08T03:16:05;20.90;;;12.00;;
7823;SDS011;3957;48.61947800;9.05303100;2024-03-08T03:17:07;21.55;;;11.70;;
7823;SDS011;3957;48.61947800;9.05303100;2024-03-08T03:18:08;19.73;;;10.23;;
7823;SDS011;3957;48.61947800;9.05303100;2024-03-08T03:19:10;18.80;;;10.88;;
7823;SDS011;3957;48.61947800;9.05303100;2024-03-08T03:20:12;17.50;;;10.68;;
7823;SDS011;3957;48.61947800;9.05303100;2024-03-08T03:21:24;18.73;;;10.43;;
7823;SDS011;3957;48.61947800;9.05303100;2024-03-08T03:22:25;17.13;;;9.80;;
7823;SDS011;3957;48.61947800;9.05303100;2024-03-08T03:23:27;17.80;;;10.07;;
7823;SDS011;3957;48.61947800;9.05303100;2024-03-08T03:24:28;16.95;;;10.23;;
7823;SDS011;3957;48.61947800;9.05303100;2024-03-08T03:25:30;18.45;;;10.23;;
7823;SDS011;3957;48.61947800;9.05303100;2024-03-08T03:26:37;19.53;;;10.30;;
7823;SDS011;3957;48.61947800;9.05303100;2024-03-08T03:27:42;19.00;;;10.05;;
7823;SDS011;3957;48.61947800;9.05303100;2024-03-08T03:28:44;18.65;;;10.55;;
7823;SDS011;3957;48.61947800;9.05303100;2024-03-08T03:29:45;19.13;;;10.75;;
7823;SDS011;3957;48.61947800;9.05303100;2024-03-08T03:30:47;17.10;;;10.77;;
7823;SDS011;3957;48.61947800;9.05303100;2024-03-08T03:31:49;20.17;;;11.60;;
7823;SDS011;3957;48.61947800;9.05303100;2024-03-08T03:32:50;18.33;;;10.45;;
7823;SDS011;3957;48.61947800;9.05303100;2024-03-08T03:33:52;17.63;;;9.68;;
7823;SDS011;3957;48.61947800;9.05303100;2024-03-08T03:34:54;23.85;;;12.10;;
7823;SDS011;3957;48.61947800;9.05303100;2024-03-08T03:35:56;20.35;;;12.05;;
7823;SDS011;3957;48.61947800;9.05303100;2024-03-08T03:36:57;22.83;;;12.63;;
7823;SDS011;3957;48.61947800;9.05303100;2024-03-08T03:37:59;23.63;;;12.47;;
7823;SDS011;3957;48.61947800;9.05303100;2024-03-08T03:39:18;20.00;;;11.80;;
7823;SDS011;3957;48.61947800;9.05303100;2024-03-08T03:40:21;19.20;;;10.98;;
7823;SDS011;3957;48.61947800;9.05303100;2024-03-08T03:41:24;19.73;;;11.45;;
7823;SDS011;3957;48.61947800;9.05303100;2024-03-08T03:42:26;20.98;;;11.35;;
7823;SDS011;3957;48.61947800;9.05303100;2024-03-08T03:43:28;17.85;;;10.50;;
7823;SDS011;3957;48.61947800;9.05303100;2024-03-08T03:44:29;22.80;;;10.77;;
7823;SDS011;3957;48.61947800;9.05303100;2024-03-08T03:45:31;18.27;;;10.25;;
7823;SDS011;3957;48.61947800;9.05303100;2024-03-08T03:46:41;17.70;;;10.13;;
7823;SDS011;3957;48.61947800;9.05303100;2024-03-08T03:47:45;17.00;;;9.93;;
7823;SDS011;3957;48.61947800;9.05303100;2024-03-08T03:48:47;18.27;;;10.63;;
7823;SDS011;3957;48.61947800;9.05303100;2024-03-08T03:49:49;21.25;;;11.10;;
7823;SDS011;3957;48.61947800;9.05303100;2024-03-08T03:50:50;20.15;;;11.13;;
7823;SDS011;3957;48.61947800;9.05303100;2024-03-08T03:51:52;18.30;;;10.30;;
7823;SDS011;3957;48.61947800;9.05303100;2024-03-08T03:52:53;18.52;;;10.98;;
7823;SDS011;3957;48.61947800;9.05303100;2024-03-08T03:53:55;20.27;;;11.43;;
7823;SDS011;3957;48.61947800;9.05303100;2024-03-08T03:54:58;20.27;;;11.00;;
7823;SDS011;3957;48.61947800;9.05303100;2024-03-08T03:56:00;18.52;;;10.80;;
7823;SDS011;3957;48.61947800;9.05303100;2024-03-08T03:57:01;21.87;;;11.67;;
7823;SDS011;3957;48.61947800;9.05303100;2024-03-08T03:58:04;22.83;;;12.02;;
7823;SDS011;3957;48.61947800;9.05303100;2024-03-08T03:59:06;18.90;;;10.80;;
7823;SDS011;3957;48.61947800;9.05303100;2024-03-08T04:00:08;16.20;;;10.73;;
7823;SDS011;3957;48.61947800;9.05303100;2024-03-08T04:01:14;19.52;;;11.07;;
7823;SDS011;3957;48.61947800;9.05303100;2024-03-08T04:02:16;19.30;;;11.23;;
7823;SDS011;3957;48.61947800;9.05303100;2024-03-08T04:03:18;21.98;;;10.70;;
7823;SDS011;3957;48.61947800;9.05303100;2024-03-08T04:04:22;22.98;;;11.90;;
7823;SDS011;3957;48.61947800;9.05303100;2024-03-08T04:05:26;19.92;;;11.35;;
7823;SDS011;3957;48.61947800;9.05303100;2024-03-08T04:06:28;19.10;;;10.95;;
7823;SDS011;3957;48.61947800;9.05303100;2024-03-08T04:07:29;22.15;;;10.95;;
7823;SDS011;3957;48.61947800;9.05303100;2024-03-08T04:08:31;17.73;;;10.35;;
7823;SDS011;3957;48.61947800;9.05303100;2024-03-08T04:09:35;18.20;;;10.98;;
7823;SDS011;3957;48.61947800;9.05303100;2024-03-08T04:10:36;19.80;;;9.90;;
7823;SDS011;3957;48.61947800;9.05303100;2024-03-08T04:11:38;16.38;;;9.32;;
7823;SDS011;3957;48.61947800;9.05303100;2024-03-08T04:12:40;19.65;;;10.60;;
7823;SDS011;3957;48.61947800;9.05303100;2024-03-08T04:13:42;17.60;;;9.77;;
7823;SDS011;3957;48.61947800;9.05303100;2024-03-08T04:14:44;16.08;;;9.65;;
7823;SDS011;3957;48.61947800;9.05303100;2024-03-08T04:15:46;21.67;;;11.32;;
7823;SDS011;3957;48.61947800;9.05303100;2024-03-08T04:16:50;18.52;;;10.05;;
7823;SDS011;3957;48.61947800;9.05303100;2024-03-08T04:17:52;18.88;;;10.48;;
7823;SDS011;3957;48.61947800;9.05303100;2024-03-08T04:18:54;17.95;;;10.63;;
7823;SDS011;3957;48.61947800;9.05303100;2024-03-08T04:19:56;19.00;;;10.70;;
7823;SDS011;3957;48.61947800;9.05303100;2024-03-08T04:20:58;16.65;;;10.23;;
7823;SDS011;3957;48.61947800;9.05303100;2024-03-08T04:22:00;20.23;;;11.07;;
7823;SDS011;3957;48.61947800;9.05303100;2024-03-08T04:23:03;17.25;;;9.85;;
7823;SDS011;3957;48.61947800;9.05303100;2024-03-08T04:24:05;19.40;;;11.48;;
7823;SDS011;3957;48.61947800;9.05303100;2024-03-08T04:25:07;20.92;;;10.90;;
7823;SDS011;3957;48.61947800;9.05303100;2024-03-08T04:26:11;19.35;;;10.43;;
7823;SDS011;3957;48.61947800;9.05303100;2024-03-08T04:27:13;20.30;;;11.25;;
7823;SDS011;3957;48.61947800;9.05303100;2024-03-08T04:28:15;19.70;;;10.38;;
7823;SDS011;3957;48.61947800;9.05303100;2024-03-08T04:29:18;21.65;;;12.10;;
7823;SDS011;3957;48.61947800;9.05303100;2024-03-08T04:30:20;19.73;;;10.48;;
7823;SDS011;3957;48.61947800;9.05303100;2024-03-08T04:31:22;17.27;;;10.38;;
7823;SDS011;3957;48.61947800;9.05303100;2024-03-08T04:32:24;19.83;;;10.52;;
7823;SDS011;3957;48.61947800;9.05303100;2024-03-08T04:33:26;16.38;;;9.95;;
7823;SDS011;3957;48.61947800;9.05303100;2024-03-08T04:34:28;17.67;;;9.90;;
7823;SDS011;3957;48.61947800;9.05303100;2024-03-08T04:35:30;17.27;;;9.18;;
7823;SDS011;3957;48.61947800;9.05303100;2024-03-08T04:36:31;20.15;;;11.27;;
7823;SDS011;3957;48.61947800;9.05303100;2024-03-08T04:37:35;20.13;;;11.43;;
7823;SDS011;3957;48.61947800;9.05303100;2024-03-08T04:38:37;22.20;;;10.75;;
7823;SDS011;3957;48.61947800;9.05303100;2024-03-08T04:39:42;18.80;;;10.73;;
7823;SDS011;3957;48.61947800;9.05303100;2024-03-08T04:40:43;19.73;;;10.73;;
7823;SDS011;3957;48.61947800;9.05303100;2024-03-08T04:41:45;19.13;;;10.55;;
7823;SDS011;3957;48.61947800;9.05303100;2024-03-08T04:42:47;16.67;;;10.07;;
7823;SDS011;3957;48.61947800;9.05303100;2024-03-08T04:43:52;18.77;;;10.68;;
7823;SDS011;3957;48.61947800;9.05303100;2024-03-08T04:44:53;18.88;;;9.80;;
7823;SDS011;3957;48.61947800;9.05303100;2024-03-08T04:45:55;20.30;;;11.20;;
7823;SDS011;3957;48.61947800;9.05303100;2024-03-08T04:46:57;17.25;;;10.07;;
7823;SDS011;3957;48.61947800;9.05303100;2024-03-08T04:47:59;15.70;;;9.82;;
7823;SDS011;3957;48.61947800;9.05303100;2024-03-08T04:49:01;19.35;;;10.50;;
7823;SDS011;3957;48.61947800;9.05303100;2024-03-08T04:50:02;24.35;;;11.95;;
7823;SDS011;3957;48.61947800;9.05303100;2024-03-08T04:51:05;19.67;;;10.95;;
7823;SDS011;3957;48.61947800;9.05303100;2024-03-08T04:52:07;19.63;;;10.93;;
7823;SDS011;3957;48.61947800;9.05303100;2024-03-08T04:53:08;16.25;;;9.75;;
7823;SDS011;3957;48.61947800;9.05303100;2024-03-08T04:54:10;17.83;;;9.98;;
7823;SDS011;3957;48.61947800;9.05303100;2024-03-08T04:55:12;16.95;;;10.48;;
7823;SDS011;3957;48.61947800;9.05303100;2024-03-08T04:56:13;16.10;;;9.65;;
7823;SDS011;3957;48.61947800;9.05303100;2024-03-08T04:57:15;16.40;;;9.32;;
7823;SDS011;3957;48.61947800;9.05303100;2024-03-08T04:58:19;16.73;;;10.15;;
7823;SDS011;3957;48.61947800;9.05303100;2024-03-08T04:59:22;17.35;;;9.98;;
7823;SDS011;3957;48.61947800;9.05303100;2024-03-08T05:00:23;14.63;;;9.18;;
7823;SDS011;3957;48.61947800;9.05303100;2024-03-08T05:01:25;18.67;;;10.18;;
7823;SDS011;3957;48.61947800;9.05303100;2024-03-08T05:02:27;18.30;;;9.73;;
7823;SDS011;3957;48.61947800;9.05303100;2024-03-08T05:03:29;15.90;;;9.70;;
7823;SDS011;3957;48.61947800;9.05303100;2024-03-08T05:04:31;16.95;;;10.10;;
7823;SDS011;3957;48.61947800;9.05303100;2024-03-08T05:05:32;18.23;;;10.63;;
7823;SDS011;3957;48.61947800;9.05303100;2024-03-08T05:06:34;18.75;;;10.43;;
7823;SDS011;3957;48.61947800;9.05303100;2024-03-08T05:07:38;20.13;;;9.88;;
7823;SDS011;3957;48.61947800;9.05303100;2024-03-08T05:08:40;16.95;;;9.50;;
7823;SDS011;3957;48.61947800;9.05303100;2024-03-08T05:09:42;19.05;;;10.30;;
7823;SDS011;3957;48.61947800;9.05303100;2024-03-08T05:10:44;19.88;;;10.50;;
7823;SDS011;3957;48.61947800;9.05303100;2024-03-08T05:11:46;18.05;;;10.23;;
7823;SDS011;3957;48.61947800;9.05303100;2024-03-08T05:12:48;18.67;;;9.93;;
7823;SDS011;3957;48.61947800;9.05303100;2024-03-08T05:13:50;18.05;;;10.02;;
7823;SDS011;3957;48.61947800;9.05303100;2024-03-08T05:14:51;16.83;;;9.82;;
7823;SDS011;3957;48.61947800;9.05303100;2024-03-08T05:15:53;17.77;;;10.20;;
7823;SDS011;3957;48.61947800;9.05303100;2024-03-08T05:16:55;17.25;;;9.80;;
7823;SDS011;3957;48.61947800;9.05303100;2024-03-08T05:17:57;20.27;;;9.82;;
7823;SDS011;3957;48.61947800;9.05303100;2024-03-08T05:18:59;17.83;;;11.10;;
7823;SDS011;3957;48.61947800;9.05303100;2024-03-08T05:20:01;18.63;;;10.32;;
7823;SDS011;3957;48.61947800;9.05303100;2024-03-08T05:21:03;19.15;;;10.40;;
7823;SDS011;3957;48.61947800;9.05303100;2024-03-08T05:22:05;18.77;;;10.25;;
7823;SDS011;3957;48.61947800;9.05303100;2024-03-08T05:23:07;21.15;;;11.15;;
7823;SDS011;3957;48.61947800;9.05303100;2024-03-08T05:24:09;20.37;;;11.50;;
7823;SDS011;3957;48.61947800;9.05303100;2024-03-08T05:25:11;20.60;;;11.15;;
7823;SDS011;3957;48.61947800;9.05303100;2024-03-08T05:26:13;21.13;;;11.18;;
7823;SDS011;3957;48.61947800;9.05303100;2024-03-08T05:27:15;22.52;;;12.07;;